sensor_id;sensor_type;location;lat;lon;timestamp;temperature;humidity
44487;DHT22;30191;50.908;6.962;2023-03-05T00:01:52;6.30;99.90
44487;DHT22;30191;50.908;6.962;2023-03-05T00:04:18;6.30;99.90
44487;DHT22;30191;50.908;6.962;2023-03-05T00:06:44;6.30;99.90
44487;DHT22;30191;50.908;6.962;2023-03-05T00:09:09;6.30;99.90
44487;DHT22;30191;50.908;6.962;2023-03-05T00:11:35;6.30;99.90
44487;DHT22;30191;50.908;6.962;2023-03-05T00:14:01;6.20;99.90
44487;DHT22;30191;50.908;6.962;2023-03-05T00:16:28;6.20;99.90
44487;DHT22;30191;50.908;6.962;2023-03-05T00:18:54;6.20;99.90
44487;DHT22;30191;50.908;6.962;2023-03-05T00:21:24;6.20;99.90
44487;DHT22;30191;50.908;6.962;2023-03-05T00:23:50;6.30;99.90
44487;DHT22;30191;50.908;6.962;2023-03-05T00:26:19;6.30;99.90
44487;DHT22;30191;50.908;6.962;2023-03-05T00:28:45;6.30;99.90
44487;DHT22;30191;50.908;6.962;2023-03-05T00:31:19;6.20;99.90
44487;DHT22;30191;50.908;6.962;2023-03-05T00:33:44;6.20;99.90
44487;DHT22;30191;50.908;6.962;2023-03-05T00:36:10;6.20;99.90
44487;DHT22;30191;50.908;6.962;2023-03-05T00:38:36;6.20;99.90
44487;DHT22;30191;50.908;6.962;2023-03-05T00:41:01;6.20;99.90
44487;DHT22;30191;50.908;6.962;2023-03-05T00:43:27;6.20;99.90
44487;DHT22;30191;50.908;6.962;2023-03-05T00:45:53;6.30;99.90
44487;DHT22;30191;50.908;6.962;2023-03-05T00:48:18;6.30;99.90
44487;DHT22;30191;50.908;6.962;2023-03-05T00:50:44;6.30;99.90
44487;DHT22;30191;50.908;6.962;2023-03-05T00:53:10;6.30;99.90
44487;DHT22;30191;50.908;6.962;2023-03-05T00:55:35;6.30;99.90
44487;DHT22;30191;50.908;6.962;2023-03-05T00:58:01;6.30;99.90
44487;DHT22;30191;50.908;6.962;2023-03-05T01:00:27;6.30;99.90
44487;DHT22;30191;50.908;6.962;2023-03-05T01:02:52;6.30;99.90
44487;DHT22;30191;50.908;6.962;2023-03-05T01:05:18;6.30;99.90
44487;DHT22;30191;50.908;6.962;2023-03-05T01:07:44;6.20;99.90
44487;DHT22;30191;50.908;6.962;2023-03-05T01:10:09;6.10;99.90
44487;DHT22;30191;50.908;6.962;2023-03-05T01:12:35;6.10;99.90
44487;DHT22;30191;50.908;6.962;2023-03-05T01:15:01;6.10;99.90
44487;DHT22;30191;50.908;6.962;2023-03-05T01:17:26;6.10;99.90
44487;DHT22;30191;50.908;6.962;2023-03-05T01:19:52;6.00;99.90
44487;DHT22;30191;50.908;6.962;2023-03-05T01:22:18;6.00;99.90
44487;DHT22;30191;50.908;6.962;2023-03-05T01:24:43;6.00;99.90
44487;DHT22;30191;50.908;6.962;2023-03-05T01:27:09;6.00;99.90
44487;DHT22;30191;50.908;6.962;2023-03-05T01:29:35;6.10;99.90
44487;DHT22;30191;50.908;6.962;2023-03-05T01:32:00;6.10;99.90
44487;DHT22;30191;50.908;6.962;2023-03-05T01:34:26;6.10;99.90
44487;DHT22;30191;50.908;6.962;2023-03-05T01:36:52;6.10;99.90
44487;DHT22;30191;50.908;6.962;2023-03-05T01:39:17;6.10;99.90
44487;DHT22;30191;50.908;6.962;2023-03-05T01:41:43;6.10;99.90
44487;DHT22;30191;50.908;6.962;2023-03-05T01:47:00;6.10;99.90
44487;DHT22;30191;50.908;6.962;2023-03-05T01:52:13;6.10;99.90
44487;DHT22;30191;50.908;6.962;2023-03-05T01:54:48;6.00;99.90
44487;DHT22;30191;50.908;6.962;2023-03-05T01:59:50;5.90;99.90
44487;DHT22;30191;50.908;6.962;2023-03-05T02:02:17;5.90;99.90
44487;DHT22;30191;50.908;6.962;2023-03-05T02:04:45;5.90;99.90
44487;DHT22;30191;50.908;6.962;2023-03-05T02:07:12;5.90;99.90
44487;DHT22;30191;50.908;6.962;2023-03-05T02:09:38;5.90;99.90
44487;DHT22;30191;50.908;6.962;2023-03-05T02:12:04;6.00;99.90
44487;DHT22;30191;50.908;6.962;2023-03-05T02:14:30;6.00;99.90
44487;DHT22;30191;50.908;6.962;2023-03-05T02:16:56;6.00;99.90
44487;DHT22;30191;50.908;6.962;2023-03-05T02:19:22;6.00;99.90
44487;DHT22;30191;50.908;6.962;2023-03-05T02:21:47;6.00;99.90
44487;DHT22;30191;50.908;6.962;2023-03-05T02:24:15;6.10;99.90
44487;DHT22;30191;50.908;6.962;2023-03-05T02:26:41;6.10;99.90
44487;DHT22;30191;50.908;6.962;2023-03-05T02:29:09;6.10;99.90
44487;DHT22;30191;50.908;6.962;2023-03-05T02:31:36;6.00;99.90
44487;DHT22;30191;50.908;6.962;2023-03-05T02:34:03;5.90;99.90
44487;DHT22;30191;50.908;6.962;2023-03-05T02:36:29;5.90;99.90
44487;DHT22;30191;50.908;6.962;2023-03-05T02:38:54;5.90;99.90
44487;DHT22;30191;50.908;6.962;2023-03-05T02:41:21;5.80;99.90
44487;DHT22;30191;50.908;6.962;2023-03-05T02:43:47;5.80;99.90
44487;DHT22;30191;50.908;6.962;2023-03-05T02:46:12;5.80;99.90
44487;DHT22;30191;50.908;6.962;2023-03-05T02:48:38;5.70;99.90
44487;DHT22;30191;50.908;6.962;2023-03-05T02:51:04;5.70;99.90
44487;DHT22;30191;50.908;6.962;2023-03-05T02:53:29;5.60;99.90
44487;DHT22;30191;50.908;6.962;2023-03-05T02:55:55;5.60;99.90
44487;DHT22;30191;50.908;6.962;2023-03-05T02:58:20;5.60;99.90
44487;DHT22;30191;50.908;6.962;2023-03-05T03:00:46;5.60;99.90
44487;DHT22;30191;50.908;6.962;2023-03-05T03:03:12;5.60;99.90
44487;DHT22;30191;50.908;6.962;2023-03-05T03:05:37;5.60;99.90
44487;DHT22;30191;50.908;6.962;2023-03-05T03:08:03;5.60;99.90
44487;DHT22;30191;50.908;6.962;2023-03-05T03:10:29;5.70;99.90
44487;DHT22;30191;50.908;6.962;2023-03-05T03:12:55;5.70;99.90
44487;DHT22;30191;50.908;6.962;2023-03-05T03:15:20;5.70;99.90
44487;DHT22;30191;50.908;6.962;2023-03-05T03:17:46;5.80;99.90
44487;DHT22;30191;50.908;6.962;2023-03-05T03:20:12;5.70;99.90
44487;DHT22;30191;50.908;6.962;2023-03-05T03:22:38;5.70;99.90
44487;DHT22;30191;50.908;6.962;2023-03-05T03:25:04;5.70;99.90
44487;DHT22;30191;50.908;6.962;2023-03-05T03:27:30;5.70;99.90
44487;DHT22;30191;50.908;6.962;2023-03-05T03:29:56;5.70;99.90
44487;DHT22;30191;50.908;6.962;2023-03-05T03:32:25;5.70;99.90
44487;DHT22;30191;50.908;6.962;2023-03-05T03:34:50;5.70;99.90
44487;DHT22;30191;50.908;6.962;2023-03-05T03:37:16;5.80;99.90
44487;DHT22;30191;50.908;6.962;2023-03-05T03:39:41;5.90;99.90
44487;DHT22;30191;50.908;6.962;2023-03-05T03:42:07;5.90;99.90
44487;DHT22;30191;50.908;6.962;2023-03-05T03:44:32;5.80;99.90
44487;DHT22;30191;50.908;6.962;2023-03-05T03:46:58;5.80;99.90
44487;DHT22;30191;50.908;6.962;2023-03-05T03:49:24;5.90;99.90
44487;DHT22;30191;50.908;6.962;2023-03-05T03:51:51;5.80;99.90
44487;DHT22;30191;50.908;6.962;2023-03-05T03:54:17;5.80;99.90
44487;DHT22;30191;50.908;6.962;2023-03-05T03:56:43;5.80;99.90
44487;DHT22;30191;50.908;6.962;2023-03-05T03:59:09;5.80;99.90
44487;DHT22;30191;50.908;6.962;2023-03-05T04:01:34;5.80;99.90
44487;DHT22;30191;50.908;6.962;2023-03-05T04:04:00;5.80;99.90
44487;DHT22;30191;50.908;6.962;2023-03-05T04:06:26;5.90;99.90
44487;DHT22;30191;50.908;6.962;2023-03-05T04:08:51;5.90;99.90
44487;DHT22;30191;50.908;6.962;2023-03-05T04:11:17;5.90;99.90
44487;DHT22;30191;50.908;6.962;2023-03-05T04:13:45;5.90;99.90
44487;DHT22;30191;50.908;6.962;2023-03-05T04:16:11;5.90;99.90
44487;DHT22;30191;50.908;6.962;2023-03-05T04:18:37;5.90;99.90
44487;DHT22;30191;50.908;6.962;2023-03-05T04:21:03;5.80;99.90
44487;DHT22;30191;50.908;6.962;2023-03-05T04:23:28;5.80;99.90
44487;DHT22;30191;50.908;6.962;2023-03-05T04:25:54;5.90;99.90
44487;DHT22;30191;50.908;6.962;2023-03-05T04:28:19;5.80;99.90
44487;DHT22;30191;50.908;6.962;2023-03-05T04:30:45;5.80;99.90
44487;DHT22;30191;50.908;6.962;2023-03-05T04:33:10;5.80;99.90
44487;DHT22;30191;50.908;6.962;2023-03-05T04:35:36;5.80;99.90
44487;DHT22;30191;50.908;6.962;2023-03-05T04:38:02;5.80;99.90
44487;DHT22;30191;50.908;6.962;2023-03-05T04:40:27;5.80;99.90
44487;DHT22;30191;50.908;6.962;2023-03-05T04:42:53;5.70;99.90
44487;DHT22;30191;50.908;6.962;2023-03-05T04:45:18;5.70;99.90
44487;DHT22;30191;50.908;6.962;2023-03-05T04:47:44;5.70;99.90
44487;DHT22;30191;50.908;6.962;2023-03-05T04:50:11;5.60;99.90
44487;DHT22;30191;50.908;6.962;2023-03-05T04:52:38;5.60;99.90
44487;DHT22;30191;50.908;6.962;2023-03-05T04:55:03;5.60;99.90
44487;DHT22;30191;50.908;6.962;2023-03-05T04:57:29;5.60;99.90
44487;DHT22;30191;50.908;6.962;2023-03-05T04:59:55;5.60;99.90
44487;DHT22;30191;50.908;6.962;2023-03-05T05:02:20;5.60;99.90
44487;DHT22;30191;50.908;6.962;2023-03-05T05:04:46;5.60;99.90
44487;DHT22;30191;50.908;6.962;2023-03-05T05:07:13;5.60;99.90
44487;DHT22;30191;50.908;6.962;2023-03-05T05:09:39;5.70;99.90
44487;DHT22;30191;50.908;6.962;2023-03-05T05:12:05;5.70;99.90
44487;DHT22;30191;50.908;6.962;2023-03-05T05:14:32;5.70;99.90
44487;DHT22;30191;50.908;6.962;2023-03-05T05:16:58;5.70;99.90
44487;DHT22;30191;50.908;6.962;2023-03-05T05:19:24;5.70;99.90
44487;DHT22;30191;50.908;6.962;2023-03-05T05:21:50;5.70;99.90
44487;DHT22;30191;50.908;6.962;2023-03-05T05:24:15;5.70;99.90
44487;DHT22;30191;50.908;6.962;2023-03-05T05:26:41;5.70;99.90
44487;DHT22;30191;50.908;6.962;2023-03-05T05:29:06;5.70;99.90
44487;DHT22;30191;50.908;6.962;2023-03-05T05:31:32;5.70;99.90
44487;DHT22;30191;50.908;6.962;2023-03-05T05:33:57;5.70;99.90
44487;DHT22;30191;50.908;6.962;2023-03-05T05:36:23;5.60;99.90
44487;DHT22;30191;50.908;6.962;2023-03-05T05:38:48;5.60;99.90
44487;DHT22;30191;50.908;6.962;2023-03-05T05:41:15;5.60;99.90
44487;DHT22;30191;50.908;6.962;2023-03-05T05:43:41;5.60;99.90
44487;DHT22;30191;50.908;6.962;2023-03-05T05:46:09;5.60;99.90
44487;DHT22;30191;50.908;6.962;2023-03-05T05:48:35;5.60;99.90
44487;DHT22;30191;50.908;6.962;2023-03-05T05:51:04;5.60;99.90
44487;DHT22;30191;50.908;6.962;2023-03-05T05:53:30;5.60;99.90
44487;DHT22;30191;50.908;6.962;2023-03-05T05:55:56;5.70;99.90
44487;DHT22;30191;50.908;6.962;2023-03-05T05:58:21;5.70;99.90
44487;DHT22;30191;50.908;6.962;2023-03-05T06:00:47;5.60;99.90
44487;DHT22;30191;50.908;6.962;2023-03-05T06:03:12;5.60;99.90
44487;DHT22;30191;50.908;6.962;2023-03-05T06:05:39;5.70;99.90
44487;DHT22;30191;50.908;6.962;2023-03-05T06:08:05;5.70;99.90
44487;DHT22;30191;50.908;6.962;2023-03-05T06:10:30;5.60;99.90
44487;DHT22;30191;50.908;6.962;2023-03-05T06:12:56;5.70;99.90
44487;DHT22;30191;50.908;6.962;2023-03-05T06:15:21;5.70;99.90
44487;DHT22;30191;50.908;6.962;2023-03-05T06:17:47;5.70;99.90
44487;DHT22;30191;50.908;6.962;2023-03-05T06:20:12;5.70;99.90
44487;DHT22;30191;50.908;6.962;2023-03-05T06:22:38;5.80;99.90
44487;DHT22;30191;50.908;6.962;2023-03-05T06:25:05;5.80;99.90
44487;DHT22;30191;50.908;6.962;2023-03-05T06:27:31;5.80;99.90
44487;DHT22;30191;50.908;6.962;2023-03-05T06:29:56;5.70;99.90
44487;DHT22;30191;50.908;6.962;2023-03-05T06:32:22;5.70;99.90
44487;DHT22;30191;50.908;6.962;2023-03-05T06:34:48;5.70;99.90
44487;DHT22;30191;50.908;6.962;2023-03-05T06:37:13;5.70;99.90
44487;DHT22;30191;50.908;6.962;2023-03-05T06:39:39;5.70;99.90
44487;DHT22;30191;50.908;6.962;2023-03-05T06:42:05;5.70;99.90
44487;DHT22;30191;50.908;6.962;2023-03-05T06:44:30;5.70;99.90
44487;DHT22;30191;50.908;6.962;2023-03-05T06:46:56;5.80;99.90
44487;DHT22;30191;50.908;6.962;2023-03-05T06:49:21;5.90;99.90
44487;DHT22;30191;50.908;6.962;2023-03-05T06:51:47;5.90;99.90
44487;DHT22;30191;50.908;6.962;2023-03-05T06:54:13;5.90;99.90
44487;DHT22;30191;50.908;6.962;2023-03-05T06:56:40;6.00;99.90
44487;DHT22;30191;50.908;6.962;2023-03-05T06:59:06;6.10;99.90
44487;DHT22;30191;50.908;6.962;2023-03-05T07:01:32;6.10;99.90
44487;DHT22;30191;50.908;6.962;2023-03-05T07:03:58;6.10;99.90
44487;DHT22;30191;50.908;6.962;2023-03-05T07:06:25;6.10;99.90
44487;DHT22;30191;50.908;6.962;2023-03-05T07:08:55;6.10;99.90
44487;DHT22;30191;50.908;6.962;2023-03-05T07:11:21;6.10;99.90
44487;DHT22;30191;50.908;6.962;2023-03-05T07:13:46;6.10;99.90
44487;DHT22;30191;50.908;6.962;2023-03-05T07:16:13;6.00;99.90
44487;DHT22;30191;50.908;6.962;2023-03-05T07:18:39;6.10;99.90
44487;DHT22;30191;50.908;6.962;2023-03-05T07:21:05;6.10;99.90
44487;DHT22;30191;50.908;6.962;2023-03-05T07:23:31;6.10;99.90
44487;DHT22;30191;50.908;6.962;2023-03-05T07:25:59;6.20;99.90
44487;DHT22;30191;50.908;6.962;2023-03-05T07:28:24;6.20;99.90
44487;DHT22;30191;50.908;6.962;2023-03-05T07:30:57;6.20;99.90
44487;DHT22;30191;50.908;6.962;2023-03-05T07:33:23;6.20;99.90
44487;DHT22;30191;50.908;6.962;2023-03-05T07:35:49;6.20;99.90
44487;DHT22;30191;50.908;6.962;2023-03-05T07:38:15;6.30;99.90
44487;DHT22;30191;50.908;6.962;2023-03-05T07:40:40;6.30;99.90
44487;DHT22;30191;50.908;6.962;2023-03-05T07:43:06;6.30;99.90
44487;DHT22;30191;50.908;6.962;2023-03-05T07:45:31;6.30;99.90
44487;DHT22;30191;50.908;6.962;2023-03-05T07:47:57;6.30;99.90
44487;DHT22;30191;50.908;6.962;2023-03-05T07:50:22;6.30;99.90
44487;DHT22;30191;50.908;6.962;2023-03-05T07:52:48;6.30;99.90
44487;DHT22;30191;50.908;6.962;2023-03-05T07:55:14;6.30;99.90
44487;DHT22;30191;50.908;6.962;2023-03-05T07:57:39;6.30;99.90
44487;DHT22;30191;50.908;6.962;2023-03-05T08:00:05;6.30;99.90
44487;DHT22;30191;50.908;6.962;2023-03-05T08:02:31;6.30;99.90
44487;DHT22;30191;50.908;6.962;2023-03-05T08:04:56;6.20;99.90
44487;DHT22;30191;50.908;6.962;2023-03-05T08:07:22;6.30;99.90
44487;DHT22;30191;50.908;6.962;2023-03-05T08:09:47;6.30;99.90
44487;DHT22;30191;50.908;6.962;2023-03-05T08:12:13;6.30;99.90
44487;DHT22;30191;50.908;6.962;2023-03-05T08:14:38;6.30;99.90
44487;DHT22;30191;50.908;6.962;2023-03-05T08:17:04;6.30;99.90
44487;DHT22;30191;50.908;6.962;2023-03-05T08:19:30;6.20;99.90
44487;DHT22;30191;50.908;6.962;2023-03-05T08:21:56;6.20;99.90
44487;DHT22;30191;50.908;6.962;2023-03-05T08:24:21;6.10;99.90
44487;DHT22;30191;50.908;6.962;2023-03-05T08:26:54;6.10;99.90
44487;DHT22;30191;50.908;6.962;2023-03-05T08:29:19;6.20;99.90
44487;DHT22;30191;50.908;6.962;2023-03-05T08:31:45;6.30;99.90
44487;DHT22;30191;50.908;6.962;2023-03-05T08:34:11;6.30;99.90
44487;DHT22;30191;50.908;6.962;2023-03-05T08:36:37;6.40;99.90
44487;DHT22;30191;50.908;6.962;2023-03-05T08:39:02;6.40;99.90
44487;DHT22;30191;50.908;6.962;2023-03-05T08:41:31;6.40;99.90
44487;DHT22;30191;50.908;6.962;2023-03-05T08:43:56;6.50;99.90
44487;DHT22;30191;50.908;6.962;2023-03-05T08:46:22;6.50;99.90
44487;DHT22;30191;50.908;6.962;2023-03-05T08:48:47;6.60;99.90
44487;DHT22;30191;50.908;6.962;2023-03-05T08:51:14;6.60;99.90
44487;DHT22;30191;50.908;6.962;2023-03-05T08:53:40;6.60;99.90
44487;DHT22;30191;50.908;6.962;2023-03-05T08:56:09;6.50;99.90
44487;DHT22;30191;50.908;6.962;2023-03-05T08:58:35;6.40;99.90
44487;DHT22;30191;50.908;6.962;2023-03-05T09:01:01;6.40;99.90
44487;DHT22;30191;50.908;6.962;2023-03-05T09:03:26;6.40;99.90
44487;DHT22;30191;50.908;6.962;2023-03-05T09:05:52;6.30;99.90
44487;DHT22;30191;50.908;6.962;2023-03-05T09:08:17;6.30;99.90
44487;DHT22;30191;50.908;6.962;2023-03-05T09:10:44;6.30;99.90
44487;DHT22;30191;50.908;6.962;2023-03-05T09:13:09;6.40;99.90
44487;DHT22;30191;50.908;6.962;2023-03-05T09:15:35;6.50;99.90
44487;DHT22;30191;50.908;6.962;2023-03-05T09:18:01;6.50;99.90
44487;DHT22;30191;50.908;6.962;2023-03-05T09:20:26;6.50;99.90
44487;DHT22;30191;50.908;6.962;2023-03-05T09:22:52;6.50;99.90
44487;DHT22;30191;50.908;6.962;2023-03-05T09:25:18;6.40;99.90
44487;DHT22;30191;50.908;6.962;2023-03-05T09:27:43;6.40;99.90
44487;DHT22;30191;50.908;6.962;2023-03-05T09:30:10;6.40;99.90
44487;DHT22;30191;50.908;6.962;2023-03-05T09:32:36;6.50;99.90
44487;DHT22;30191;50.908;6.962;2023-03-05T09:35:01;6.50;99.90
44487;DHT22;30191;50.908;6.962;2023-03-05T09:37:27;6.50;99.90
44487;DHT22;30191;50.908;6.962;2023-03-05T09:39:54;6.60;99.90
44487;DHT22;30191;50.908;6.962;2023-03-05T09:55:34;6.80;99.90
44487;DHT22;30191;50.908;6.962;2023-03-05T09:58:24;6.80;99.90
44487;DHT22;30191;50.908;6.962;2023-03-05T10:00:47;6.90;99.90
44487;DHT22;30191;50.908;6.962;2023-03-05T10:08:18;6.80;99.90
44487;DHT22;30191;50.908;6.962;2023-03-05T10:10:50;6.70;99.90
44487;DHT22;30191;50.908;6.962;2023-03-05T10:13:28;6.70;99.90
44487;DHT22;30191;50.908;6.962;2023-03-05T10:15:57;6.60;99.90
44487;DHT22;30191;50.908;6.962;2023-03-05T10:18:29;6.60;99.90
44487;DHT22;30191;50.908;6.962;2023-03-05T10:21:01;6.60;99.90
44487;DHT22;30191;50.908;6.962;2023-03-05T10:26:05;6.50;99.90
44487;DHT22;30191;50.908;6.962;2023-03-05T10:34:15;6.30;99.90
44487;DHT22;30191;50.908;6.962;2023-03-05T10:47:13;6.20;99.90
44487;DHT22;30191;50.908;6.962;2023-03-05T10:49:43;6.10;99.90
44487;DHT22;30191;50.908;6.962;2023-03-05T10:52:13;6.10;99.90
44487;DHT22;30191;50.908;6.962;2023-03-05T10:54:41;6.10;99.90
44487;DHT22;30191;50.908;6.962;2023-03-05T10:59:47;6.20;99.90
44487;DHT22;30191;50.908;6.962;2023-03-05T11:02:13;6.30;99.90
44487;DHT22;30191;50.908;6.962;2023-03-05T11:04:39;6.30;99.90
44487;DHT22;30191;50.908;6.962;2023-03-05T11:09:39;6.40;99.90
44487;DHT22;30191;50.908;6.962;2023-03-05T11:12:09;6.40;99.90
44487;DHT22;30191;50.908;6.962;2023-03-05T11:14:36;6.30;99.90
44487;DHT22;30191;50.908;6.962;2023-03-05T11:17:21;6.30;99.90
44487;DHT22;30191;50.908;6.962;2023-03-05T11:19:47;6.30;99.90
44487;DHT22;30191;50.908;6.962;2023-03-05T11:24:38;6.20;99.90
44487;DHT22;30191;50.908;6.962;2023-03-05T11:29:49;6.10;99.90
44487;DHT22;30191;50.908;6.962;2023-03-05T11:32:19;6.00;99.90
44487;DHT22;30191;50.908;6.962;2023-03-05T11:34:45;6.10;99.90
44487;DHT22;30191;50.908;6.962;2023-03-05T11:37:18;6.10;99.90
44487;DHT22;30191;50.908;6.962;2023-03-05T11:39:46;6.20;99.90
44487;DHT22;30191;50.908;6.962;2023-03-05T11:42:12;6.20;99.90
44487;DHT22;30191;50.908;6.962;2023-03-05T11:47:22;6.20;99.90
44487;DHT22;30191;50.908;6.962;2023-03-05T11:49:49;6.20;99.90
44487;DHT22;30191;50.908;6.962;2023-03-05T11:54:53;6.30;99.90
44487;DHT22;30191;50.908;6.962;2023-03-05T11:57:23;6.30;99.90
44487;DHT22;30191;50.908;6.962;2023-03-05T11:59:50;6.20;99.90
44487;DHT22;30191;50.908;6.962;2023-03-05T12:02:18;6.20;99.90
44487;DHT22;30191;50.908;6.962;2023-03-05T12:04:44;6.20;99.90
44487;DHT22;30191;50.908;6.962;2023-03-05T12:07:11;6.20;99.90
44487;DHT22;30191;50.908;6.962;2023-03-05T12:09:38;6.20;99.90
44487;DHT22;30191;50.908;6.962;2023-03-05T12:14:55;6.20;99.90
44487;DHT22;30191;50.908;6.962;2023-03-05T12:17:32;6.20;99.90
44487;DHT22;30191;50.908;6.962;2023-03-05T12:22:45;6.30;99.90
44487;DHT22;30191;50.908;6.962;2023-03-05T12:27:42;6.50;99.90
44487;DHT22;30191;50.908;6.962;2023-03-05T12:30:29;6.60;99.90
44487;DHT22;30191;50.908;6.962;2023-03-05T12:32:54;6.70;99.90
44487;DHT22;30191;50.908;6.962;2023-03-05T12:40:22;6.70;99.90
44487;DHT22;30191;50.908;6.962;2023-03-05T12:42:54;6.70;99.90
44487;DHT22;30191;50.908;6.962;2023-03-05T12:51:12;6.60;99.90
44487;DHT22;30191;50.908;6.962;2023-03-05T12:58:17;6.50;99.90
44487;DHT22;30191;50.908;6.962;2023-03-05T13:03:10;6.60;99.90
44487;DHT22;30191;50.908;6.962;2023-03-05T13:05:39;6.60;99.90
44487;DHT22;30191;50.908;6.962;2023-03-05T13:08:15;6.70;99.90
44487;DHT22;30191;50.908;6.962;2023-03-05T13:10:49;6.60;99.90
44487;DHT22;30191;50.908;6.962;2023-03-05T13:13:15;6.60;99.90
44487;DHT22;30191;50.908;6.962;2023-03-05T13:15:43;6.60;99.90
44487;DHT22;30191;50.908;6.962;2023-03-05T13:18:11;6.60;99.90
44487;DHT22;30191;50.908;6.962;2023-03-05T13:20:41;6.60;99.90
44487;DHT22;30191;50.908;6.962;2023-03-05T13:23:14;6.60;99.90
44487;DHT22;30191;50.908;6.962;2023-03-05T13:25:41;6.60;99.90
44487;DHT22;30191;50.908;6.962;2023-03-05T13:28:11;6.60;99.90
44487;DHT22;30191;50.908;6.962;2023-03-05T13:30:37;6.60;99.90
44487;DHT22;30191;50.908;6.962;2023-03-05T13:33:03;6.70;99.90
44487;DHT22;30191;50.908;6.962;2023-03-05T13:35:32;6.70;99.90
44487;DHT22;30191;50.908;6.962;2023-03-05T13:37:58;6.70;99.90
44487;DHT22;30191;50.908;6.962;2023-03-05T13:40:24;6.80;99.90
44487;DHT22;30191;50.908;6.962;2023-03-05T13:42:51;6.80;99.90
44487;DHT22;30191;50.908;6.962;2023-03-05T13:45:26;6.80;99.90
44487;DHT22;30191;50.908;6.962;2023-03-05T13:50:30;6.80;99.90
44487;DHT22;30191;50.908;6.962;2023-03-05T13:53:08;6.80;99.90
44487;DHT22;30191;50.908;6.962;2023-03-05T13:55:37;6.70;99.90
44487;DHT22;30191;50.908;6.962;2023-03-05T13:58:03;6.70;99.90
44487;DHT22;30191;50.908;6.962;2023-03-05T14:00:33;6.70;99.90
44487;DHT22;30191;50.908;6.962;2023-03-05T14:03:00;6.60;99.90
44487;DHT22;30191;50.908;6.962;2023-03-05T14:05:31;6.60;99.90
44487;DHT22;30191;50.908;6.962;2023-03-05T14:07:57;6.60;99.90
44487;DHT22;30191;50.908;6.962;2023-03-05T14:10:27;6.60;99.90
44487;DHT22;30191;50.908;6.962;2023-03-05T14:12:53;6.70;99.90
44487;DHT22;30191;50.908;6.962;2023-03-05T14:17:45;6.70;99.90
44487;DHT22;30191;50.908;6.962;2023-03-05T14:22:49;6.60;99.90
44487;DHT22;30191;50.908;6.962;2023-03-05T14:25:36;6.50;99.90
44487;DHT22;30191;50.908;6.962;2023-03-05T14:28:03;6.50;99.90
44487;DHT22;30191;50.908;6.962;2023-03-05T14:30:29;6.40;99.90
44487;DHT22;30191;50.908;6.962;2023-03-05T14:32:55;6.30;99.90
44487;DHT22;30191;50.908;6.962;2023-03-05T14:35:23;6.30;99.90
44487;DHT22;30191;50.908;6.962;2023-03-05T14:37:49;6.30;99.90
44487;DHT22;30191;50.908;6.962;2023-03-05T14:40:20;6.30;99.90
44487;DHT22;30191;50.908;6.962;2023-03-05T14:42:50;6.30;99.90
44487;DHT22;30191;50.908;6.962;2023-03-05T14:47:41;6.40;99.90
44487;DHT22;30191;50.908;6.962;2023-03-05T14:50:09;6.50;99.90
44487;DHT22;30191;50.908;6.962;2023-03-05T14:52:36;6.50;99.90
44487;DHT22;30191;50.908;6.962;2023-03-05T14:55:02;6.50;99.90
44487;DHT22;30191;50.908;6.962;2023-03-05T14:57:28;6.50;99.90
44487;DHT22;30191;50.908;6.962;2023-03-05T14:59:55;6.40;99.90
44487;DHT22;30191;50.908;6.962;2023-03-05T15:02:22;6.40;99.90
44487;DHT22;30191;50.908;6.962;2023-03-05T15:04:48;6.30;99.90
44487;DHT22;30191;50.908;6.962;2023-03-05T15:07:15;6.30;99.90
44487;DHT22;30191;50.908;6.962;2023-03-05T15:09:41;6.30;99.90
44487;DHT22;30191;50.908;6.962;2023-03-05T15:12:08;6.30;99.90
44487;DHT22;30191;50.908;6.962;2023-03-05T15:14:33;6.40;99.90
44487;DHT22;30191;50.908;6.962;2023-03-05T15:16:59;6.40;99.90
44487;DHT22;30191;50.908;6.962;2023-03-05T15:19:24;6.40;99.90
44487;DHT22;30191;50.908;6.962;2023-03-05T15:21:50;6.40;99.90
44487;DHT22;30191;50.908;6.962;2023-03-05T15:24:16;6.30;99.90
44487;DHT22;30191;50.908;6.962;2023-03-05T15:26:41;6.30;99.90
44487;DHT22;30191;50.908;6.962;2023-03-05T15:29:07;6.30;99.90
44487;DHT22;30191;50.908;6.962;2023-03-05T15:31:32;6.30;99.90
44487;DHT22;30191;50.908;6.962;2023-03-05T15:34:03;6.30;99.90
44487;DHT22;30191;50.908;6.962;2023-03-05T15:36:29;6.30;99.90
44487;DHT22;30191;50.908;6.962;2023-03-05T15:38:55;6.30;99.90
44487;DHT22;30191;50.908;6.962;2023-03-05T15:41:20;6.30;99.90
44487;DHT22;30191;50.908;6.962;2023-03-05T15:43:46;6.30;99.90
44487;DHT22;30191;50.908;6.962;2023-03-05T15:46:12;6.40;99.90
44487;DHT22;30191;50.908;6.962;2023-03-05T15:48:37;6.40;99.90
44487;DHT22;30191;50.908;6.962;2023-03-05T15:51:06;6.50;99.90
44487;DHT22;30191;50.908;6.962;2023-03-05T15:53:31;6.50;99.90
44487;DHT22;30191;50.908;6.962;2023-03-05T15:55:57;6.50;99.90
44487;DHT22;30191;50.908;6.962;2023-03-05T15:58:23;6.60;99.90
44487;DHT22;30191;50.908;6.962;2023-03-05T16:00:48;6.70;99.90
44487;DHT22;30191;50.908;6.962;2023-03-05T16:03:14;6.70;99.90
44487;DHT22;30191;50.908;6.962;2023-03-05T16:05:39;6.70;99.90
44487;DHT22;30191;50.908;6.962;2023-03-05T16:08:05;6.60;99.90
44487;DHT22;30191;50.908;6.962;2023-03-05T16:10:30;6.70;99.90
44487;DHT22;30191;50.908;6.962;2023-03-05T16:12:57;6.70;99.90
44487;DHT22;30191;50.908;6.962;2023-03-05T16:15:25;6.80;99.90
44487;DHT22;30191;50.908;6.962;2023-03-05T16:17:52;6.80;99.90
44487;DHT22;30191;50.908;6.962;2023-03-05T16:20:18;6.80;99.90
44487;DHT22;30191;50.908;6.962;2023-03-05T16:22:44;6.80;99.90
44487;DHT22;30191;50.908;6.962;2023-03-05T16:25:10;6.70;99.90
44487;DHT22;30191;50.908;6.962;2023-03-05T16:27:36;6.70;99.90
44487;DHT22;30191;50.908;6.962;2023-03-05T16:30:02;6.80;99.90
44487;DHT22;30191;50.908;6.962;2023-03-05T16:32:28;6.80;99.90
44487;DHT22;30191;50.908;6.962;2023-03-05T16:34:53;6.80;99.90
44487;DHT22;30191;50.908;6.962;2023-03-05T16:37:20;6.80;99.90
44487;DHT22;30191;50.908;6.962;2023-03-05T16:39:46;6.80;99.90
44487;DHT22;30191;50.908;6.962;2023-03-05T16:42:11;6.70;99.90
44487;DHT22;30191;50.908;6.962;2023-03-05T16:44:38;6.70;99.90
44487;DHT22;30191;50.908;6.962;2023-03-05T16:47:04;6.70;99.90
44487;DHT22;30191;50.908;6.962;2023-03-05T16:49:32;6.70;99.90
44487;DHT22;30191;50.908;6.962;2023-03-05T16:51:57;6.70;99.90
44487;DHT22;30191;50.908;6.962;2023-03-05T16:54:23;6.70;99.90
44487;DHT22;30191;50.908;6.962;2023-03-05T16:56:48;6.60;99.90
44487;DHT22;30191;50.908;6.962;2023-03-05T16:59:14;6.60;99.90
44487;DHT22;30191;50.908;6.962;2023-03-05T17:01:39;6.70;99.90
44487;DHT22;30191;50.908;6.962;2023-03-05T17:04:05;6.70;99.90
44487;DHT22;30191;50.908;6.962;2023-03-05T17:06:31;6.70;99.90
44487;DHT22;30191;50.908;6.962;2023-03-05T17:08:57;6.70;99.90
44487;DHT22;30191;50.908;6.962;2023-03-05T17:11:23;6.60;99.90
44487;DHT22;30191;50.908;6.962;2023-03-05T17:13:50;6.60;99.90
44487;DHT22;30191;50.908;6.962;2023-03-05T17:16:16;6.60;99.90
44487;DHT22;30191;50.908;6.962;2023-03-05T17:18:42;6.50;99.90